Time;durP1;ratioP1;P1;durP2;ratioP2;P2;SDS_P1;SDS_P2;PMS_P1;PMS_P2;Temp;Humidity;BMP_temperature;BMP_pressure;BME280_temperature;BME280_humidity;BME280_pressure;Samples;Min_cycle;Max_cycle;Signal;HPM_P1;HPM_P2
2021/12/02 00:02:19;;;;;;;6.25;1.77;;;;;;;;;;8209722;28;20042;-72
2021/12/02 00:06:19;;;;;;;2.33;1.67;;;;;;;;;;8209661;28;20412;-72
2021/12/02 00:10:20;;;;;;;3.85;1.40;;;;;;;;;;8209556;28;20509;-72
2021/12/02 00:14:27;;;;;;;4.65;1.75;;;;;;;;;;8210548;28;20141;-72
2021/12/02 00:21:03;;;;;;;6.57;1.85;;;;;;;;;;8205585;28;20039;-72
2021/12/02 00:23:09;;;;;;;4.30;1.80;;;;;;;;;;8210310;28;20040;-72
2021/12/02 00:27:09;;;;;;;5.20;1.60;;;;;;;;;;8209741;28;20105;-72
2021/12/02 00:31:18;;;;;;;3.60;1.40;;;;;;;;;;8209272;28;20126;-72
2021/12/02 00:35:18;;;;;;;3.17;1.65;;;;;;;;;;8208392;28;20019;-72
2021/12/02 00:39:19;;;;;;;3.85;1.50;;;;;;;;;;8209451;28;20803;-72
2021/12/02 00:43:19;;;;;;;3.65;1.75;;;;;;;;;;8209791;28;20522;-72
2021/12/02 00:47:20;;;;;;;7.30;1.85;;;;;;;;;;8207290;28;20727;-72
2021/12/02 00:51:20;;;;;;;3.75;1.70;;;;;;;;;;8209697;28;20067;-72
2021/12/02 00:55:21;;;;;;;5.20;1.80;;;;;;;;;;8208624;28;20019;-71
2021/12/02 00:59:22;;;;;;;9.27;2.30;;;;;;;;;;8208269;28;20106;-72
2021/12/02 01:03:24;;;;;;;5.43;1.83;;;;;;;;;;8207968;28;20613;-72
2021/12/02 01:07:24;;;;;;;5.20;1.50;;;;;;;;;;8206453;28;20149;-72
2021/12/02 01:11:25;;;;;;;5.43;2.00;;;;;;;;;;8207279;28;20026;-72
2021/12/02 01:15:25;;;;;;;4.80;2.17;;;;;;;;;;8206913;28;20049;-72
2021/12/02 01:19:26;;;;;;;7.20;2.30;;;;;;;;;;8208364;28;20031;-72
2021/12/02 01:23:28;;;;;;;8.45;2.42;;;;;;;;;;8208104;28;20115;-72
2021/12/02 01:27:28;;;;;;;3.65;1.83;;;;;;;;;;8212877;28;20529;-72
2021/12/02 01:31:33;;;;;;;4.65;1.95;;;;;;;;;;8206025;28;20061;-72
2021/12/02 01:35:34;;;;;;;10.40;3.13;;;;;;;;;;8208535;28;20030;-72
2021/12/02 01:39:35;;;;;;;7.18;1.95;;;;;;;;;;8208288;28;20046;-72
2021/12/02 01:43:42;;;;;;;5.03;1.67;;;;;;;;;;8207316;28;20037;-71
2021/12/02 01:47:46;;;;;;;7.47;1.80;;;;;;;;;;8204854;28;20035;-72
2021/12/02 01:51:48;;;;;;;4.93;2.17;;;;;;;;;;8207850;28;20357;-72
2021/12/02 01:55:51;;;;;;;3.60;1.60;;;;;;;;;;8207315;28;20129;-72
2021/12/02 01:59:57;;;;;;;6.50;1.83;;;;;;;;;;8207603;28;20572;-72
2021/12/02 02:03:57;;;;;;;6.68;1.90;;;;;;;;;;8205182;28;20053;-72
2021/12/02 02:08:01;;;;;;;4.57;1.77;;;;;;;;;;8207154;28;20023;-72
2021/12/02 02:12:03;;;;;;;3.25;1.58;;;;;;;;;;8207426;28;20508;-71
2021/12/02 02:16:03;;;;;;;5.25;1.98;;;;;;;;;;8204369;28;20041;-72
2021/12/02 02:20:06;;;;;;;4.60;1.90;;;;;;;;;;8205777;28;20234;-72
2021/12/02 02:24:11;;;;;;;2.67;1.30;;;;;;;;;;8205179;28;20425;-72
2021/12/02 02:28:13;;;;;;;4.15;1.58;;;;;;;;;;8207595;28;20118;-72
2021/12/02 02:32:13;;;;;;;3.60;1.70;;;;;;;;;;8205124;28;20077;-73
2021/12/02 02:36:13;;;;;;;3.88;1.90;;;;;;;;;;8205727;28;20114;-72
2021/12/02 02:40:15;;;;;;;5.75;1.80;;;;;;;;;;8207133;28;20106;-72
2021/12/02 02:44:16;;;;;;;3.15;1.70;;;;;;;;;;8211157;28;20656;-72
2021/12/02 02:48:16;;;;;;;6.88;1.83;;;;;;;;;;8211681;28;20038;-72
2021/12/02 02:52:16;;;;;;;3.78;1.67;;;;;;;;;;8211344;28;20057;-72
2021/12/02 02:56:18;;;;;;;5.82;1.88;;;;;;;;;;8212910;28;20345;-72
2021/12/02 03:00:25;;;;;;;5.32;1.70;;;;;;;;;;8210804;28;20089;-72
2021/12/02 03:04:47;;;;;;;4.43;2.00;;;;;;;;;;8212900;28;21002;-72
2021/12/02 03:08:55;;;;;;;4.65;1.70;;;;;;;;;;8224936;28;20018;-72
2021/12/02 03:12:58;;;;;;;4.28;2.13;;;;;;;;;;8212921;28;20041;-72
2021/12/02 03:16:58;;;;;;;6.05;2.20;;;;;;;;;;8211532;28;20295;-72
2021/12/02 03:20:59;;;;;;;6.72;1.90;;;;;;;;;;8210958;28;20129;-72
2021/12/02 03:24:59;;;;;;;4.93;1.63;;;;;;;;;;8212016;28;20057;-72
2021/12/02 03:28:59;;;;;;;1.50;1.13;;;;;;;;;;8213747;28;20027;-72
2021/12/02 03:33:00;;;;;;;2.75;0.88;;;;;;;;;;8208976;28;20042;-72
2021/12/02 03:37:00;;;;;;;1.02;0.57;;;;;;;;;;8211180;28;20042;-72
2021/12/02 03:41:01;;;;;;;0.98;0.70;;;;;;;;;;8211584;28;20151;-72
2021/12/02 03:45:02;;;;;;;1.67;1.02;;;;;;;;;;8211325;28;20464;-73
2021/12/02 03:49:03;;;;;;;3.08;0.88;;;;;;;;;;8211263;28;20049;-72
2021/12/02 03:53:03;;;;;;;2.47;1.10;;;;;;;;;;8209696;28;20038;-72
2021/12/02 03:57:03;;;;;;;1.60;0.50;;;;;;;;;;8210734;28;20110;-72
2021/12/02 04:01:05;;;;;;;3.45;1.67;;;;;;;;;;8209487;28;20047;-72
2021/12/02 04:05:05;;;;;;;6.55;2.60;;;;;;;;;;8211497;28;20035;-72
2021/12/02 04:09:22;;;;;;;3.17;1.52;;;;;;;;;;8211160;28;20031;-72
2021/12/02 04:13:27;;;;;;;2.25;1.13;;;;;;;;;;8209796;28;20042;-72
2021/12/02 04:17:43;;;;;;;1.15;0.52;;;;;;;;;;8208637;28;20050;-72
2021/12/02 04:21:43;;;;;;;3.08;1.33;;;;;;;;;;8211332;28;20042;-71
2021/12/02 04:25:43;;;;;;;0.70;0.60;;;;;;;;;;8209866;28;20658;-72
2021/12/02 04:29:43;;;;;;;1.70;0.60;;;;;;;;;;8209879;28;20015;-72
2021/12/02 04:33:44;;;;;;;2.05;0.50;;;;;;;;;;8207781;28;20267;-72
2021/12/02 04:37:44;;;;;;;1.02;0.50;;;;;;;;;;8209084;28;20050;-72
2021/12/02 04:41:44;;;;;;;1.10;0.60;;;;;;;;;;8209901;28;20038;-72
2021/12/02 04:45:45;;;;;;;0.57;0.40;;;;;;;;;;8209545;28;20035;-72
2021/12/02 04:49:45;;;;;;;0.30;0.30;;;;;;;;;;8205841;28;20058;-71
2021/12/02 04:53:45;;;;;;;0.30;0.30;;;;;;;;;;8210211;28;20039;-72
2021/12/02 04:57:46;;;;;;;0.30;0.30;;;;;;;;;;8208328;28;20345;-72
2021/12/02 05:01:46;;;;;;;1.00;0.40;;;;;;;;;;8208239;28;20038;-72
2021/12/02 05:05:46;;;;;;;0.45;0.45;;;;;;;;;;8208945;28;20065;-72
2021/12/02 05:09:46;;;;;;;1.50;0.57;;;;;;;;;;8208385;28;20019;-72
2021/12/02 05:13:47;;;;;;;2.30;0.82;;;;;;;;;;8208485;28;20268;-72
2021/12/02 05:17:47;;;;;;;3.33;0.88;;;;;;;;;;8206994;28;20603;-72
2021/12/02 05:21:47;;;;;;;4.85;2.03;;;;;;;;;;8207818;28;20027;-72
2021/12/02 05:25:47;;;;;;;3.17;1.13;;;;;;;;;;8208152;28;20026;-72
2021/12/02 05:29:47;;;;;;;5.55;1.30;;;;;;;;;;8206269;28;20027;-72
2021/12/02 05:33:48;;;;;;;3.67;0.75;;;;;;;;;;8208507;28;20558;-72
2021/12/02 05:37:48;;;;;;;0.95;0.60;;;;;;;;;;8207205;28;20031;-72
2021/12/02 05:41:52;;;;;;;4.30;1.10;;;;;;;;;;8202876;28;20221;-72
2021/12/02 05:45:53;;;;;;;3.05;1.17;;;;;;;;;;8205503;28;20571;-72
2021/12/02 05:49:53;;;;;;;3.45;1.20;;;;;;;;;;8206648;28;20399;-72
2021/12/02 05:53:53;;;;;;;1.17;0.73;;;;;;;;;;8205965;28;20026;-72
2021/12/02 05:57:53;;;;;;;2.22;1.00;;;;;;;;;;8206272;28;20259;-72
2021/12/02 06:01:54;;;;;;;2.55;1.05;;;;;;;;;;8203723;28;20043;-72
2021/12/02 06:05:54;;;;;;;3.00;1.03;;;;;;;;;;8202919;28;20030;-72
2021/12/02 06:09:54;;;;;;;2.83;0.90;;;;;;;;;;8203958;28;20302;-72
2021/12/02 06:13:54;;;;;;;6.00;1.50;;;;;;;;;;8206034;28;20545;-72
2021/12/02 06:17:54;;;;;;;1.73;0.90;;;;;;;;;;8205453;28;20058;-72
2021/12/02 06:21:55;;;;;;;1.33;0.82;;;;;;;;;;8207230;28;20144;-73
2021/12/02 06:25:56;;;;;;;3.72;1.40;;;;;;;;;;8204108;28;20026;-72
2021/12/02 06:29:56;;;;;;;4.53;1.60;;;;;;;;;;8206528;28;20089;-72
2021/12/02 06:33:56;;;;;;;4.40;1.70;;;;;;;;;;8206391;28;20050;-72
2021/12/02 06:37:57;;;;;;;1.65;1.00;;;;;;;;;;8204584;28;20037;-72
2021/12/02 06:41:57;;;;;;;6.13;1.00;;;;;;;;;;8206569;28;20073;-72
2021/12/02 06:45:57;;;;;;;1.00;0.85;;;;;;;;;;8205044;28;20747;-72
2021/12/02 06:50:00;;;;;;;0.82;0.80;;;;;;;;;;8206478;28;20050;-72
2021/12/02 06:54:03;;;;;;;2.93;1.53;;;;;;;;;;8207401;28;20073;-72
2021/12/02 06:58:03;;;;;;;2.50;1.30;;;;;;;;;;8207485;28;21045;-72
2021/12/02 07:02:03;;;;;;;3.95;1.27;;;;;;;;;;8204210;28;20046;-72
2021/12/02 07:06:04;;;;;;;2.95;0.80;;;;;;;;;;8178055;28;20050;-72
2021/12/02 07:10:12;;;;;;;1.58;0.80;;;;;;;;;;8204772;28;20924;-72
2021/12/02 07:14:15;;;;;;;3.15;0.93;;;;;;;;;;8206926;28;20035;-72
2021/12/02 07:18:15;;;;;;;1.98;1.25;;;;;;;;;;8204285;28;20115;-71
2021/12/02 07:22:16;;;;;;;1.73;1.13;;;;;;;;;;8205782;28;20150;-72
2021/12/02 07:26:16;;;;;;;1.30;1.00;;;;;;;;;;8205897;28;20666;-71
2021/12/02 07:30:16;;;;;;;1.23;0.90;;;;;;;;;;8207361;28;20149;-71
2021/12/02 07:34:17;;;;;;;1.00;0.60;;;;;;;;;;8209583;28;20274;-72
2021/12/02 07:38:18;;;;;;;1.85;0.90;;;;;;;;;;8210162;28;20285;-72
2021/12/02 07:42:18;;;;;;;1.58;0.95;;;;;;;;;;8212194;28;20544;-71
2021/12/02 07:46:19;;;;;;;1.60;0.70;;;;;;;;;;8211167;28;20042;-72
2021/12/02 07:50:19;;;;;;;2.35;0.90;;;;;;;;;;8211946;28;20361;-71
2021/12/02 07:54:19;;;;;;;1.55;0.98;;;;;;;;;;8210333;28;20278;-71
2021/12/02 07:58:20;;;;;;;6.25;3.50;;;;;;;;;;8210250;28;20109;-71
2021/12/02 08:02:21;;;;;;;1.17;0.80;;;;;;;;;;8210966;28;20085;-71
2021/12/02 08:06:23;;;;;;;2.15;0.75;;;;;;;;;;8210516;28;20015;-71
2021/12/02 08:10:24;;;;;;;1.85;0.88;;;;;;;;;;8211823;28;20491;-72
2021/12/02 08:14:24;;;;;;;1.50;0.60;;;;;;;;;;8210932;28;20224;-72
2021/12/02 08:18:24;;;;;;;1.23;0.70;;;;;;;;;;8209307;28;20068;-72
2021/12/02 08:22:24;;;;;;;0.98;0.55;;;;;;;;;;8210954;28;20061;-72
2021/12/02 08:26:24;;;;;;;1.90;0.77;;;;;;;;;;8209640;28;20026;-72
2021/12/02 08:30:26;;;;;;;4.28;0.68;;;;;;;;;;8209711;28;20042;-72
2021/12/02 08:34:26;;;;;;;0.70;0.70;;;;;;;;;;8209660;28;20026;-72
2021/12/02 08:38:35;;;;;;;1.77;0.63;;;;;;;;;;8209840;28;20031;-71
2021/12/02 08:42:35;;;;;;;1.27;0.80;;;;;;;;;;8209189;28;20037;-71
2021/12/02 08:46:35;;;;;;;1.95;1.02;;;;;;;;;;8209306;28;20464;-72
2021/12/02 08:50:37;;;;;;;1.10;0.82;;;;;;;;;;8209270;28;20026;-71
2021/12/02 08:54:37;;;;;;;0.88;0.80;;;;;;;;;;8209258;28;20027;-72
2021/12/02 08:58:38;;;;;;;2.35;0.90;;;;;;;;;;8210813;28;20035;-72
2021/12/02 09:02:38;;;;;;;4.05;1.00;;;;;;;;;;8207198;28;20043;-71
2021/12/02 09:06:39;;;;;;;1.55;0.70;;;;;;;;;;8209544;28;20038;-72
2021/12/02 09:10:40;;;;;;;3.78;0.90;;;;;;;;;;8207764;28;20543;-72
2021/12/02 09:14:40;;;;;;;3.90;0.80;;;;;;;;;;8208257;28;20057;-72
2021/12/02 09:18:40;;;;;;;2.05;0.82;;;;;;;;;;8208464;28;20043;-71
2021/12/02 09:22:42;;;;;;;0.77;0.75;;;;;;;;;;8207947;28;20035;-71
2021/12/02 09:26:42;;;;;;;1.00;0.90;;;;;;;;;;8208542;28;20031;-72
2021/12/02 09:30:42;;;;;;;1.50;0.85;;;;;;;;;;8208215;28;20038;-72
2021/12/02 09:34:43;;;;;;;2.85;1.08;;;;;;;;;;8209106;28;20027;-71
2021/12/02 09:38:44;;;;;;;1.35;1.00;;;;;;;;;;8207437;28;20035;-72
2021/12/02 09:42:44;;;;;;;5.25;1.48;;;;;;;;;;8208374;28;20023;-72
2021/12/02 09:46:45;;;;;;;1.83;0.88;;;;;;;;;;8205984;28;20045;-71
2021/12/02 09:59:28;;;;;;;2.22;1.30;;;;;;;;;;8208815;28;20395;-71
2021/12/02 10:03:33;;;;;;;5.07;1.90;;;;;;;;;;8207246;28;20034;-71
2021/12/02 10:11:46;;;;;;;2.60;0.90;;;;;;;;;;8207176;28;20495;-71
2021/12/02 10:16:01;;;;;;;10.45;1.30;;;;;;;;;;8206790;28;20061;-71
2021/12/02 10:24:24;;;;;;;3.42;1.00;;;;;;;;;;8205636;28;20039;-71
2021/12/02 10:28:25;;;;;;;1.88;0.80;;;;;;;;;;8204952;28;20215;-72
2021/12/02 10:32:28;;;;;;;4.70;1.30;;;;;;;;;;8205930;28;20035;-71
2021/12/02 10:36:31;;;;;;;5.10;0.98;;;;;;;;;;8206595;28;20526;-71
2021/12/02 10:40:33;;;;;;;1.60;0.90;;;;;;;;;;8206384;28;20118;-72
2021/12/02 10:44:35;;;;;;;2.83;1.25;;;;;;;;;;8207198;28;20034;-71
2021/12/02 10:48:51;;;;;;;3.08;1.15;;;;;;;;;;8206694;28;20042;-71
2021/12/02 10:52:52;;;;;;;2.83;1.13;;;;;;;;;;8206858;28;20115;-71
2021/12/02 10:56:57;;;;;;;1.98;0.90;;;;;;;;;;8205393;28;20659;-71
2021/12/02 11:00:57;;;;;;;2.72;0.80;;;;;;;;;;8204097;28;20051;-71
2021/12/02 11:05:09;;;;;;;2.42;1.02;;;;;;;;;;8212437;28;20037;-73
2021/12/02 11:09:29;;;;;;;5.45;0.88;;;;;;;;;;8210936;28;20027;-72
2021/12/02 11:13:29;;;;;;;4.13;1.00;;;;;;;;;;8211960;28;20045;-72
2021/12/02 11:17:33;;;;;;;2.92;0.63;;;;;;;;;;8209875;28;20055;-72
2021/12/02 11:21:36;;;;;;;2.67;1.60;;;;;;;;;;8211136;28;20094;-72
2021/12/02 11:25:54;;;;;;;1.23;0.90;;;;;;;;;;8209830;28;20496;-72
2021/12/02 11:30:03;;;;;;;3.60;1.17;;;;;;;;;;8211971;28;20019;-72
2021/12/02 11:34:10;;;;;;;2.20;0.80;;;;;;;;;;8209691;28;20138;-72
2021/12/02 11:38:15;;;;;;;1.77;0.60;;;;;;;;;;8211993;28;20046;-69
2021/12/02 11:42:15;;;;;;;0.88;0.50;;;;;;;;;;8211050;28;20022;-72
2021/12/02 11:46:17;;;;;;;1.48;0.75;;;;;;;;;;8210454;28;20027;-71
2021/12/02 11:50:18;;;;;;;1.27;0.70;;;;;;;;;;8211224;28;20030;-71
2021/12/02 11:54:19;;;;;;;0.50;0.50;;;;;;;;;;8209764;28;20396;-72
2021/12/02 11:58:19;;;;;;;1.73;0.80;;;;;;;;;;8210904;28;20528;-71
2021/12/02 12:02:19;;;;;;;0.40;0.40;;;;;;;;;;8209826;28;20035;-72
2021/12/02 12:06:24;;;;;;;0.93;0.57;;;;;;;;;;8210375;28;20018;-71
2021/12/02 12:10:25;;;;;;;;;;;;;;;;;;8211136;28;20376;-72
2021/12/02 12:14:33;;;;;;;0.98;0.60;;;;;;;;;;8208122;28;19972;-72
2021/12/02 12:18:35;;;;;;;1.20;0.80;;;;;;;;;;8209535;28;20523;-72
2021/12/02 12:22:38;;;;;;;2.08;0.60;;;;;;;;;;8208453;28;20142;-71
2021/12/02 12:26:41;;;;;;;0.60;0.60;;;;;;;;;;8210253;28;20037;-71
2021/12/02 12:30:41;;;;;;;1.42;0.77;;;;;;;;;;8207231;28;20431;-71
2021/12/02 12:38:45;;;;;;;2.25;1.15;;;;;;;;;;8204917;28;20050;-72
2021/12/02 12:43:12;;;;;;;1.23;0.80;;;;;;;;;;8201762;28;20896;-72
2021/12/02 12:47:12;;;;;;;0.40;0.40;;;;;;;;;;8202133;28;20033;-71
2021/12/02 12:51:15;;;;;;;0.60;0.60;;;;;;;;;;8206354;28;20023;-72
2021/12/02 12:55:16;;;;;;;1.45;0.60;;;;;;;;;;8204925;28;20105;-72
2021/12/02 12:59:17;;;;;;;0.82;0.52;;;;;;;;;;8205561;28;20081;-72
2021/12/02 13:03:42;;;;;;;1.83;0.57;;;;;;;;;;8201397;28;20030;-72
2021/12/02 13:07:43;;;;;;;;;;;;;;;;;;8205182;28;20034;-72
2021/12/02 13:11:56;;;;;;;0.60;0.60;;;;;;;;;;8203870;28;19913;-72
2021/12/02 13:16:15;;;;;;;0.55;0.55;;;;;;;;;;8202581;28;21070;-72
2021/12/02 13:20:15;;;;;;;0.70;0.70;;;;;;;;;;8204367;28;20026;-72
2021/12/02 13:24:19;;;;;;;1.10;0.70;;;;;;;;;;8204008;28;20037;-72
2021/12/02 13:28:20;;;;;;;;;;;;;;;;;;8198152;28;20157;-72
2021/12/02 13:32:20;;;;;;;0.90;0.90;;;;;;;;;;8203052;28;19925;-72
2021/12/02 13:36:22;;;;;;;2.17;1.00;;;;;;;;;;8204021;28;20937;-72
2021/12/02 13:40:22;;;;;;;1.05;0.80;;;;;;;;;;8204055;28;20129;-72
2021/12/02 13:44:26;;;;;;;1.00;0.88;;;;;;;;;;8205541;28;20023;-72
2021/12/02 13:48:26;;;;;;;1.10;0.80;;;;;;;;;;8202037;28;20035;-72
2021/12/02 13:52:35;;;;;;;1.75;0.70;;;;;;;;;;8206018;28;20034;-71
2021/12/02 13:56:36;;;;;;;1.20;1.10;;;;;;;;;;8204346;28;20141;-72
2021/12/02 14:00:37;;;;;;;2.45;1.40;;;;;;;;;;8202795;28;20587;-72
2021/12/02 14:04:45;;;;;;;1.67;0.80;;;;;;;;;;8201384;28;20051;-72
2021/12/02 14:08:45;;;;;;;0.70;0.70;;;;;;;;;;8202198;28;20030;-72
2021/12/02 14:12:51;;;;;;;1.10;0.73;;;;;;;;;;8200974;28;20093;-72
2021/12/02 14:17:02;;;;;;;3.40;0.63;;;;;;;;;;8199539;28;20043;-72
2021/12/02 14:21:03;;;;;;;0.93;0.80;;;;;;;;;;8203690;28;20027;-72
2021/12/02 14:25:05;;;;;;;2.00;0.80;;;;;;;;;;8203253;28;20379;-72
2021/12/02 14:29:05;;;;;;;4.18;1.10;;;;;;;;;;8202318;28;20019;-72
2021/12/02 14:33:07;;;;;;;2.22;0.82;;;;;;;;;;8201510;28;20038;-72
2021/12/02 14:37:14;;;;;;;1.42;0.85;;;;;;;;;;8198200;28;20030;-71
2021/12/02 14:41:19;;;;;;;0.65;0.52;;;;;;;;;;8201649;28;20090;-72
2021/12/02 14:45:20;;;;;;;1.27;0.70;;;;;;;;;;8195931;28;20029;-72
2021/12/02 14:49:28;;;;;;;0.70;0.70;;;;;;;;;;8199509;28;20530;-71
2021/12/02 14:53:30;;;;;;;0.65;0.60;;;;;;;;;;8199174;28;20672;-71
2021/12/02 14:57:30;;;;;;;1.17;0.70;;;;;;;;;;8202446;28;20026;-72
2021/12/02 15:01:30;;;;;;;0.75;0.60;;;;;;;;;;8202003;28;20101;-72
2021/12/02 15:05:31;;;;;;;0.73;0.40;;;;;;;;;;8197421;28;20031;-71
2021/12/02 15:09:34;;;;;;;0.93;0.60;;;;;;;;;;8207992;28;20031;-72
2021/12/02 15:13:41;;;;;;;1.08;0.70;;;;;;;;;;8199045;28;20031;-71
2021/12/02 15:17:44;;;;;;;1.67;0.80;;;;;;;;;;8198095;28;20125;-71
2021/12/02 15:21:44;;;;;;;2.03;0.73;;;;;;;;;;8201159;28;20530;-71
2021/12/02 15:25:46;;;;;;;1.60;0.80;;;;;;;;;;8201621;28;20069;-72
2021/12/02 15:29:51;;;;;;;1.00;0.70;;;;;;;;;;8199572;28;20030;-72
2021/12/02 15:33:56;;;;;;;1.67;0.70;;;;;;;;;;8202921;28;20044;-72
2021/12/02 15:37:56;;;;;;;1.40;1.13;;;;;;;;;;8198620;28;20041;-71
2021/12/02 15:41:58;;;;;;;1.15;0.88;;;;;;;;;;8199901;28;20997;-71
2021/12/02 15:45:59;;;;;;;1.85;0.77;;;;;;;;;;8199529;28;20923;-72
2021/12/02 15:50:01;;;;;;;2.00;0.80;;;;;;;;;;8202813;28;20093;-71
2021/12/02 15:54:03;;;;;;;2.65;0.80;;;;;;;;;;8208707;28;20109;-71
2021/12/02 15:58:06;;;;;;;2.83;1.20;;;;;;;;;;8208990;28;20026;-71
2021/12/02 16:02:21;;;;;;;2.40;1.00;;;;;;;;;;8205842;28;20133;-71
2021/12/02 16:06:24;;;;;;;2.90;1.10;;;;;;;;;;8204155;28;20356;-71
2021/12/02 16:14:30;;;;;;;3.55;1.75;;;;;;;;;;8203647;28;20121;-72
2021/12/02 16:18:32;;;;;;;2.17;1.00;;;;;;;;;;8204782;28;20369;-72
2021/12/02 16:22:35;;;;;;;6.70;1.70;;;;;;;;;;8203597;28;20636;-72
2021/12/02 16:26:36;;;;;;;5.90;2.10;;;;;;;;;;8206585;28;20499;-71
2021/12/02 16:30:37;;;;;;;2.47;1.00;;;;;;;;;;8200870;28;20921;-72
2021/12/02 16:34:38;;;;;;;2.20;1.00;;;;;;;;;;8202153;28;20333;-72
2021/12/02 16:38:51;;;;;;;1.10;0.80;;;;;;;;;;8202436;28;20562;-72
2021/12/02 16:42:54;;;;;;;2.92;1.50;;;;;;;;;;8196951;28;20412;-72
2021/12/02 16:46:54;;;;;;;3.33;1.17;;;;;;;;;;8182561;28;20917;-72
2021/12/02 16:50:54;;;;;;;1.42;0.90;;;;;;;;;;8203822;28;20039;-72
2021/12/02 16:54:55;;;;;;;2.55;0.80;;;;;;;;;;8206521;28;20077;-73
2021/12/02 16:58:56;;;;;;;2.40;0.80;;;;;;;;;;8205735;28;20033;-72
2021/12/02 17:02:56;;;;;;;3.05;1.40;;;;;;;;;;8203035;28;20096;-72
2021/12/02 17:06:57;;;;;;;1.20;0.93;;;;;;;;;;8205060;28;20061;-72
2021/12/02 17:10:58;;;;;;;1.75;1.00;;;;;;;;;;8203462;28;20081;-72
2021/12/02 17:14:58;;;;;;;2.28;0.77;;;;;;;;;;8202143;28;20030;-72
2021/12/02 17:18:58;;;;;;;3.00;1.00;;;;;;;;;;8203596;28;20570;-75
2021/12/02 17:23:00;;;;;;;2.13;1.10;;;;;;;;;;8202584;28;20972;-72
2021/12/02 17:27:00;;;;;;;2.78;1.38;;;;;;;;;;8204470;28;20955;-72
2021/12/02 17:31:01;;;;;;;1.35;0.90;;;;;;;;;;8202549;28;20027;-72
2021/12/02 17:35:01;;;;;;;1.70;0.98;;;;;;;;;;8202310;28;20105;-72
2021/12/02 17:39:03;;;;;;;1.00;0.80;;;;;;;;;;8200383;28;20793;-73
2021/12/02 17:43:06;;;;;;;1.63;1.00;;;;;;;;;;8204156;28;20318;-72
2021/12/02 17:47:06;;;;;;;1.27;0.82;;;;;;;;;;8204776;28;20094;-72
2021/12/02 17:51:06;;;;;;;1.58;0.90;;;;;;;;;;8204471;28;20030;-72
2021/12/02 17:55:07;;;;;;;3.22;1.30;;;;;;;;;;8204302;28;20031;-72
2021/12/02 17:59:07;;;;;;;1.70;1.48;;;;;;;;;;8203425;28;20030;-72
2021/12/02 18:03:08;;;;;;;1.88;1.25;;;;;;;;;;8204285;28;20042;-72
2021/12/02 18:07:08;;;;;;;5.28;1.40;;;;;;;;;;8204585;28;20057;-72
2021/12/02 18:11:08;;;;;;;2.63;1.23;;;;;;;;;;8204825;28;20038;-72
2021/12/02 18:15:09;;;;;;;6.53;1.58;;;;;;;;;;8202515;28;20468;-73
2021/12/02 18:19:09;;;;;;;3.38;1.70;;;;;;;;;;8205818;28;20018;-72
2021/12/02 18:23:09;;;;;;;2.60;1.42;;;;;;;;;;8201556;28;20038;-72
2021/12/02 18:27:09;;;;;;;2.25;1.23;;;;;;;;;;8204848;28;20251;-71
2021/12/02 18:31:12;;;;;;;2.37;1.13;;;;;;;;;;8203054;28;20513;-73
2021/12/02 18:35:12;;;;;;;3.95;1.10;;;;;;;;;;8205185;28;20838;-73
2021/12/02 18:39:14;;;;;;;3.28;1.30;;;;;;;;;;8203648;28;20031;-72
2021/12/02 18:43:14;;;;;;;4.28;1.63;;;;;;;;;;8203775;28;20029;-72
2021/12/02 18:47:18;;;;;;;1.20;1.10;;;;;;;;;;8202136;28;20662;-72
2021/12/02 18:51:19;;;;;;;1.88;1.08;;;;;;;;;;8202517;28;20060;-72
2021/12/02 18:55:20;;;;;;;4.55;2.00;;;;;;;;;;8202892;28;20810;-72
2021/12/02 18:59:20;;;;;;;4.03;1.85;;;;;;;;;;8204480;28;20027;-72
2021/12/02 19:03:22;;;;;;;1.60;1.00;;;;;;;;;;8202645;28;20035;-73
2021/12/02 19:29:06;;;;;;;1.25;1.15;;;;;;;;;;8208271;28;20025;-71
2021/12/02 19:33:06;;;;;;;2.75;1.73;;;;;;;;;;8208227;28;20153;-71
2021/12/02 19:37:06;;;;;;;2.22;1.67;;;;;;;;;;8207693;28;20423;-72
2021/12/02 19:41:08;;;;;;;3.30;1.50;;;;;;;;;;8208711;28;20140;-72
2021/12/02 19:45:08;;;;;;;3.63;1.27;;;;;;;;;;8217295;28;20281;-72
2021/12/02 19:49:08;;;;;;;3.13;1.60;;;;;;;;;;8208632;28;20030;-72
2021/12/02 19:53:08;;;;;;;3.15;1.40;;;;;;;;;;8207513;28;20979;-72
2021/12/02 19:57:09;;;;;;;3.53;1.60;;;;;;;;;;8209045;28;20696;-71
2021/12/02 20:01:09;;;;;;;3.75;1.67;;;;;;;;;;8205690;28;21008;-70
2021/12/02 20:05:09;;;;;;;3.08;1.63;;;;;;;;;;8209169;28;20566;-70
2021/12/02 20:09:10;;;;;;;2.27;1.40;;;;;;;;;;8207236;28;20278;-71
2021/12/02 20:13:10;;;;;;;2.72;1.30;;;;;;;;;;8209201;28;20337;-71
2021/12/02 20:17:11;;;;;;;2.35;1.52;;;;;;;;;;8205811;28;20046;-71
2021/12/02 20:21:14;;;;;;;3.05;1.40;;;;;;;;;;8208322;28;20512;-71
2021/12/02 20:25:14;;;;;;;3.35;1.55;;;;;;;;;;8206701;28;20018;-71
2021/12/02 20:29:15;;;;;;;5.28;1.58;;;;;;;;;;8207171;28;20093;-71
2021/12/02 20:33:15;;;;;;;2.08;1.52;;;;;;;;;;8205839;28;20066;-71
2021/12/02 20:37:15;;;;;;;2.88;2.20;;;;;;;;;;8207037;28;20035;-70
2021/12/02 20:41:17;;;;;;;3.15;2.13;;;;;;;;;;8207724;28;20106;-70
2021/12/02 20:45:18;;;;;;;3.42;2.13;;;;;;;;;;8206342;28;20392;-70
2021/12/02 20:49:40;;;;;;;2.00;1.80;;;;;;;;;;8207032;28;20015;-71
2021/12/02 20:53:41;;;;;;;2.17;1.80;;;;;;;;;;8206255;28;20035;-71
2021/12/02 20:57:41;;;;;;;2.75;1.83;;;;;;;;;;8205144;28;20034;-71
2021/12/02 21:01:42;;;;;;;4.28;2.60;;;;;;;;;;8206224;28;20045;-71
2021/12/02 21:05:44;;;;;;;4.65;2.33;;;;;;;;;;8206827;28;20045;-70
2021/12/02 21:09:44;;;;;;;2.78;2.05;;;;;;;;;;8204264;28;20463;-70
2021/12/02 21:13:51;;;;;;;2.75;2.03;;;;;;;;;;8207637;28;20474;-71
2021/12/02 21:17:51;;;;;;;4.88;2.05;;;;;;;;;;8204539;28;20042;-71
2021/12/02 21:21:52;;;;;;;2.20;2.00;;;;;;;;;;8205385;28;20117;-71
2021/12/02 21:25:55;;;;;;;3.58;2.03;;;;;;;;;;8203471;28;20126;-71
2021/12/02 21:29:55;;;;;;;6.10;2.33;;;;;;;;;;8205383;28;20124;-71
2021/12/02 21:33:55;;;;;;;4.40;2.40;;;;;;;;;;8204249;28;20071;-71
2021/12/02 21:37:58;;;;;;;3.65;2.30;;;;;;;;;;8205299;28;20365;-71
2021/12/02 21:41:58;;;;;;;3.15;2.00;;;;;;;;;;8205743;28;20077;-71
2021/12/02 21:46:00;;;;;;;4.70;2.10;;;;;;;;;;8206257;28;20031;-72
2021/12/02 21:50:00;;;;;;;3.45;2.47;;;;;;;;;;8206165;28;20097;-72
2021/12/02 21:54:02;;;;;;;4.35;2.50;;;;;;;;;;8199969;28;20921;-72
2021/12/02 21:58:06;;;;;;;3.15;2.22;;;;;;;;;;8205506;28;20106;-72
2021/12/02 22:02:07;;;;;;;3.53;2.33;;;;;;;;;;8206360;28;20089;-72
2021/12/02 22:06:07;;;;;;;2.95;2.38;;;;;;;;;;8206216;28;20023;-72
2021/12/02 22:10:12;;;;;;;3.70;2.42;;;;;;;;;;8204974;28;20042;-72
2021/12/02 22:14:13;;;;;;;4.15;2.78;;;;;;;;;;8205891;28;20038;-72
2021/12/02 22:18:14;;;;;;;4.20;2.50;;;;;;;;;;8206764;28;20203;-71
2021/12/02 22:22:14;;;;;;;6.03;2.80;;;;;;;;;;8180839;28;20128;-71
2021/12/02 22:26:14;;;;;;;5.32;2.70;;;;;;;;;;8170043;28;20030;-72
2021/12/02 22:30:15;;;;;;;4.80;2.80;;;;;;;;;;8188783;28;20388;-72
2021/12/02 22:34:18;;;;;;;6.80;3.22;;;;;;;;;;8206660;28;20281;-72
2021/12/02 22:38:21;;;;;;;4.95;2.80;;;;;;;;;;8179747;28;20054;-72
2021/12/02 22:42:22;;;;;;;2.83;2.58;;;;;;;;;;8199584;28;20042;-71
2021/12/02 22:46:22;;;;;;;5.07;2.88;;;;;;;;;;8205078;28;20174;-71
2021/12/02 22:50:22;;;;;;;3.60;3.03;;;;;;;;;;8206863;28;20027;-71
2021/12/02 22:54:23;;;;;;;4.97;3.22;;;;;;;;;;8204570;28;20297;-72
2021/12/02 22:58:23;;;;;;;5.77;3.30;;;;;;;;;;8207311;28;20045;-71
2021/12/02 23:02:24;;;;;;;4.63;3.83;;;;;;;;;;8211683;28;20379;-71
2021/12/02 23:06:25;;;;;;;6.07;3.30;;;;;;;;;;8212682;28;20031;-72
2021/12/02 23:10:25;;;;;;;4.05;3.10;;;;;;;;;;8212938;28;20490;-72
2021/12/02 23:14:26;;;;;;;5.18;3.45;;;;;;;;;;8211961;28;20050;-72
2021/12/02 23:18:26;;;;;;;4.13;3.25;;;;;;;;;;8207008;28;20045;-72
2021/12/02 23:22:26;;;;;;;5.18;3.75;;;;;;;;;;8208735;28;20037;-72
2021/12/02 23:26:29;;;;;;;4.22;3.20;;;;;;;;;;8208523;28;20027;-72
2021/12/02 23:30:31;;;;;;;4.20;3.22;;;;;;;;;;8210855;28;20030;-72
2021/12/02 23:34:32;;;;;;;3.33;3.03;;;;;;;;;;8211990;28;20034;-71
2021/12/02 23:38:34;;;;;;;4.43;3.30;;;;;;;;;;8211014;28;20098;-71
2021/12/02 23:42:34;;;;;;;4.97;3.13;;;;;;;;;;8210240;28;20891;-71
2021/12/02 23:46:34;;;;;;;4.10;3.33;;;;;;;;;;8207489;28;20042;-71
2021/12/02 23:50:35;;;;;;;5.50;3.05;;;;;;;;;;8210683;28;20123;-71
2021/12/02 23:54:35;;;;;;;4.88;3.10;;;;;;;;;;8211108;28;20104;-71
2021/12/02 23:58:35;;;;;;;6.43;3.33;;;;;;;;;;8210689;28;21204;-71
